Latest Weather Observations for Holsworthy

IDN60801

Issued at 4:52 pm EST Friday 1 July 2022 (issued every 10 minutes, with the page automatically refreshed every 10 minutes)

About weather observations | Map of weather stations | Latest weather observations for NSW | Other Formats
Station Details ID: 066161 Name: HOLSWORTHY AERODROME AWS Lat: -33.99 Lon: 150.95 Height: 68.16 m
Data from the previous 72 hours. | See also: Recent months at Holsworthy
Date/Time
EST
Temp
°C
App
Temp
°C
Dew
Point
°C
Rel
Hum
%
Delta-T
°C
Wind Press
QNH
hPa
Press
MSL
hPa
Rain since
9am
mm
Dir  Spd
km/h
Gust
km/h
Spd
kts
Gust
kts
01/04:30pm 10.9 11.0 10.1 95 0.4 CALM 0 6 0 3 1023.7 1023.8 1.6
01/04:00pm 10.9 9.6 10.1 95 0.4 W 7 9 4 5 1023.6 1023.7 1.4
01/03:30pm 11.2 10.0 10.3 94 0.5 WNW 7 9 4 5 1023.5 1023.6 1.2
01/03:00pm 11.2 9.5 10.0 92 0.6 SW 9 11 5 6 1023.4 1023.5 0.8
01/02:30pm 11.3 10.2 9.9 91 0.7 WSW 6 9 3 5 1023.8 1023.9 0.6
01/02:00pm 11.5 11.1 9.8 89 0.9 W 2 6 1 3 1023.9 1024.0 0.4
01/01:30pm 11.5 10.0 9.1 85 1.2 W 7 9 4 5 1024.4 1024.5 0.0
01/01:00pm 11.7 10.1 8.9 83 1.4 WSW 7 9 4 5 1024.5 1024.6 0.0
01/12:30pm 11.7 9.6 8.4 80 1.6 W 9 11 5 6 1024.7 1024.8 0.0
01/12:00pm 11.7 9.5 8.0 78 1.8 W 9 13 5 7 1025.1 1025.2 0.0
01/11:30am 11.6 9.9 8.5 81 1.5 W 7 13 4 7 1025.4 1025.5 0.0
01/11:00am 11.1 9.0 8.3 83 1.4 W 9 13 5 7 1025.6 1025.7 0.0
01/10:30am 10.6 8.7 8.9 89 0.8 W 9 13 5 7 1025.8 1025.9 0.0
01/10:00am 10.4 8.5 9.2 92 0.6 W 9 11 5 6 1026.1 1026.2 0.0
01/09:30am 10.4 9.0 9.0 91 0.7 WSW 6 9 3 5 1026.3 1026.4 0.0
01/09:00am 10.0 8.4 8.8 92 0.6 SSW 7 11 4 6 1026.0 1026.1 2.4
01/08:30am 9.5 7.4 8.3 92 0.6 WSW 9 13 5 7 1026.2 1026.3 2.4
01/08:00am 9.5 7.3 7.8 89 0.8 W 9 11 5 6 1026.3 1026.4 2.2
01/07:30am 10.0 7.3 7.4 84 1.2 S 11 17 6 9 1025.9 1026.0 2.2
01/07:00am 9.8 6.8 7.6 86 1.0 S 13 19 7 10 1025.8 1025.9 2.2
01/06:30am 10.1 7.4 7.3 83 1.3 SSE 11 15 6 8 1025.6 1025.7 1.8
01/06:00am 10.4 8.8 8.2 86 1.1 SE 6 9 3 5 1025.7 1025.8 1.2
01/05:30am 10.9 8.9 8.5 85 1.2 S 9 17 5 9 1024.9 1025.0 1.2
01/05:00am 10.5 8.6 8.9 90 0.8 SSE 9 17 5 9 1025.0 1025.1 0.8
01/04:30am 9.9 7.8 8.3 90 0.8 SW 9 13 5 7 1025.0 1025.1 0.6
01/04:00am 10.1 7.6 8.0 87 1.0 SW 11 15 6 8 1024.9 1025.0 0.4
01/03:30am 10.4 8.2 7.8 84 1.3 SW 9 15 5 8 1025.0 1025.1 0.0
01/03:00am 10.4 8.1 7.3 81 1.5 SW 9 11 5 6 1024.9 1025.0 0.0
01/02:30am 10.7 8.3 6.8 77 1.8 WSW 9 11 5 6 1024.6 1024.7 0.0
01/02:00am 10.1 7.6 6.4 78 1.7 WSW 9 11 5 6 1024.9 1025.0 0.0
01/01:30am 9.7 8.8 6.1 78 1.7 CALM 0 0 0 0 1025.0 1025.1 0.0
01/01:00am 10.1 7.9 6.1 76 1.8 WSW 7 11 4 6 1024.9 1025.0 0.0
01/12:30am 10.0 7.4 6.0 76 1.9 WSW 9 9 5 5 1025.0 1025.1 0.0
01/12:00am 10.2 7.6 6.0 75 1.9 WSW 9 11 5 6 1025.0 1025.1 0.0
 
Date/Time
EST
Temp
°C
App
Temp
°C
Dew
Point
°C
Rel
Hum
%
Delta-T
°C
Wind Press
QNH
hPa
Press
MSL
hPa
Rain since
9am
mm
Dir  Spd
km/h
Gust
km/h
Spd
kts
Gust
kts
30/11:30pm 10.4 7.7 5.8 73 2.1 WSW 9 11 5 6 1025.1 1025.2 0.0
30/11:00pm 10.7 8.1 5.9 72 2.2 WSW 9 11 5 6 1025.0 1025.1 0.0
30/10:30pm 11.0 8.3 5.7 70 2.5 WSW 9 13 5 7 1025.2 1025.3 0.0
30/10:00pm 11.0 7.9 5.5 69 2.5 WSW 11 13 6 7 1025.2 1025.3 0.0
30/09:30pm 11.4 8.7 5.5 67 2.7 SW 9 9 5 5 1025.0 1025.1 0.0
30/09:00pm 11.4 9.0 5.3 66 2.8 WSW 7 9 4 5 1025.0 1025.1 0.0
30/08:30pm 12.6 9.7 4.8 59 3.6 SW 9 13 5 7 1025.0 1025.1 0.0
30/08:00pm 12.9 9.6 4.6 57 3.8 S 11 15 6 8 1024.6 1024.7 0.0
30/07:30pm 13.0 9.6 4.2 55 4.0 S 11 17 6 9 1024.5 1024.6 0.0
30/07:00pm 13.2 9.8 4.1 54 4.1 S 11 17 6 9 1024.7 1024.8 0.0
30/06:30pm 13.1 9.7 4.0 54 4.1 S 11 15 6 8 1024.3 1024.4 0.0
30/06:00pm 13.2 10.5 3.6 52 4.3 S 7 13 4 7 1024.3 1024.4 0.0
30/05:30pm 13.3 11.3 4.2 54 4.2 SSE 4 7 2 4 1023.7 1023.7 0.0
30/05:00pm 13.7 11.1 4.0 52 4.4 S 7 11 4 6 1023.4 1023.4 0.0
30/04:30pm 14.1 11.0 3.8 50 4.7 SSE 9 13 5 7 1023.2 1023.2 0.0
30/04:00pm 14.7 11.1 2.9 45 5.3 SSE 11 13 6 7 1023.0 1023.0 0.0
30/03:30pm 15.5 11.3 1.6 39 6.1 SE 13 17 7 9 1023.0 1023.0 0.0
30/03:00pm 15.9 11.6 0.9 36 6.5 SE 13 15 7 8 1023.2 1023.2 0.0
30/02:30pm 16.4 12.1 1.3 36 6.7 SSE 13 20 7 11 1023.2 1023.2 0.0
30/02:00pm 16.4 14.8 6.5 52 4.8 WSW 4 7 2 4 1023.2 1023.2 0.0
30/01:30pm 16.2 14.2 6.9 54 4.6 W 7 11 4 6 1023.1 1023.1 0.0
30/01:00pm 16.3 13.7 6.2 51 4.9 WSW 9 13 5 7 1023.1 1023.1 0.0
30/12:30pm 16.6 13.6 5.9 49 5.2 W 11 15 6 8 1023.4 1023.4 0.0
30/12:00pm 15.8 12.8 6.0 52 4.7 WSW 11 15 6 8 1023.6 1023.6 0.0
30/11:30am 15.2 11.9 6.5 56 4.2 W 13 17 7 9 1024.1 1024.2 0.0
30/11:00am 15.0 11.4 6.6 57 4.1 WSW 15 22 8 12 1024.2 1024.3 0.0
30/10:30am 14.4 10.9 7.0 61 3.6 WSW 15 20 8 11 1024.3 1024.4 0.0
30/10:00am 12.2 10.5 8.3 77 1.9 W 7 9 4 5 1024.7 1024.8 0.0
30/09:30am 10.9 9.4 8.5 85 1.2 W 6 7 3 4 1024.7 1024.8 0.0
30/09:00am 9.6 9.1 8.0 90 0.8 CALM 0 0 0 0 1024.4 1024.5 0.0
30/08:30am 8.9 8.4 7.7 92 0.6 CALM 0 0 0 0 1024.4 1024.5 0.0
30/08:00am 8.4 6.6 7.3 93 0.5 WSW 6 7 3 4 1024.0 1024.1 0.0
30/07:30am 8.3 7.7 7.2 93 0.5 CALM 0 6 0 3 1023.8 1023.9 0.0
30/07:00am 8.3 7.7 7.2 93 0.5 CALM 0 6 0 3 1023.1 1023.1 0.0
30/06:30am 8.2 6.4 7.0 92 0.6 W 6 7 3 4 1022.6 1022.6 0.0
30/06:00am 8.6 6.8 7.1 90 0.7 WNW 6 7 3 4 1022.5 1022.5 0.0
30/05:30am 9.1 7.1 6.9 86 1.0 WSW 7 9 4 5 1022.1 1022.1 0.0
30/05:00am 9.9 7.5 7.2 83 1.3 SSW 9 11 5 6 1021.4 1021.4 0.0
30/04:30am 9.6 7.7 7.5 87 1.0 SW 7 9 4 5 1021.6 1021.6 0.0
30/04:00am 8.9 6.7 7.8 93 0.5 SW 9 11 5 6 1022.0 1022.0 0.0
30/03:30am 8.0 6.9 6.9 93 0.5 WSW 2 7 1 4 1022.2 1022.2 0.0
30/03:00am 7.9 6.8 6.7 92 0.6 ESE 2 6 1 3 1021.8 1021.8 0.0
30/02:30am 8.7 8.1 7.5 92 0.6 CALM 0 0 0 0 1021.8 1021.8 0.0
30/02:00am 8.5 7.4 7.1 91 0.7 ESE 2 7 1 4 1021.4 1021.4 0.0
30/01:30am 8.4 6.9 7.0 91 0.7 S 4 7 2 4 1021.4 1021.4 0.0
30/01:00am 8.3 6.5 7.1 92 0.6 NW 6 9 3 5 1022.0 1022.0 0.0
30/12:30am 8.5 7.8 6.8 89 0.8 CALM 0 0 0 0 1022.2 1022.2 0.0
30/12:00am 9.0 8.3 7.1 88 0.9 CALM 0 0 0 0 1022.0 1022.0 0.0
 
Date/Time
EST
Temp
°C
App
Temp
°C
Dew
Point
°C
Rel
Hum
%
Delta-T
°C
Wind Press
QNH
hPa
Press
MSL
hPa
Rain since
9am
mm
Dir  Spd
km/h
Gust
km/h
Spd
kts
Gust
kts
29/11:30pm 9.3 8.6 7.1 86 1.0 CALM 0 0 0 0 1022.2 1022.2 0.0
29/11:00pm 9.8 9.2 7.6 86 1.0 CALM 0 0 0 0 1022.4 1022.4 0.0
29/10:30pm 10.1 9.6 7.9 86 1.1 CALM 0 0 0 0 1022.8 1022.8 0.0
29/10:00pm 9.9 9.4 7.8 87 1.0 CALM 0 0 0 0 1022.9 1022.9 0.0
29/09:30pm 10.0 9.4 7.4 84 1.2 CALM 0 0 0 0 1023.0 1023.0 0.0
29/09:00pm 10.1 9.5 7.3 83 1.3 CALM 0 2 0 1 1022.8 1022.8 0.0
29/08:30pm 10.9 10.4 7.8 81 1.5 CALM 0 0 0 0 1023.0 1023.0 0.0
29/08:00pm 10.4 9.8 7.5 82 1.4 CALM 0 0 0 0 1022.9 1022.9 0.0
29/07:30pm 10.6 8.9 7.7 82 1.4 ESE 6 7 3 4 1022.8 1022.8 0.0
29/07:00pm 11.2 9.9 7.7 79 1.7 E 4 7 2 4 1022.8 1022.8 0.0
29/06:30pm 12.5 10.8 7.6 72 2.4 E 6 7 3 4 1022.6 1022.6 0.0
29/06:00pm 13.3 11.4 7.5 68 2.8 ENE 7 11 4 6 1022.7 1022.7 0.0
29/05:30pm 13.4 11.5 7.4 67 2.9 NE 7 11 4 6 1022.7 1022.7 0.0
29/05:00pm 13.9 12.4 6.7 62 3.5 NNE 4 7 2 4 1022.7 1022.7 0.0
29/04:30pm 14.5 13.0 6.8 60 3.8 NNE 4 7 2 4 1022.5 1022.5 0.0
29/04:00pm 15.1 13.5 6.4 56 4.2 NNE 4 7 2 4 1022.7 1022.7 0.0
29/03:30pm 15.7 14.1 6.4 54 4.5 N 4 9 2 5 1022.6 1022.6 0.0
29/03:00pm 16.6 14.1 6.4 51 5.0 N 9 13 5 7 1022.6 1022.6 0.0
29/02:30pm 16.6 14.5 6.7 52 4.9 NNW 7 13 4 7 1022.9 1022.9 0.0
29/02:00pm 16.2 13.4 5.2 48 5.2 NNW 9 13 5 7 1023.3 1023.3 0.0
29/01:30pm 16.2 12.4 5.8 50 5.0 N 15 22 8 12 1023.4 1023.4 0.0
29/01:00pm 16.6 12.8 5.6 48 5.3 NNW 15 22 8 12 1024.2 1024.3 0.0
29/12:30pm 16.5 12.3 5.8 49 5.2 N 17 24 9 13 1024.7 1024.8 0.0
29/12:00pm 15.7 13.3 7.0 56 4.3 N 9 19 5 10 1025.2 1025.3 0.0
29/11:30am 14.8 12.4 6.9 59 3.9 NNW 9 15 5 8 1026.0 1026.1 0.0
29/11:00am 14.2 12.9 7.5 64 3.3 NNW 4 11 2 6 1026.5 1026.6 0.0
29/10:30am 12.9 10.7 7.8 71 2.5 W 9 13 5 7 1027.0 1027.1 0.0
29/10:00am 11.7 8.7 7.6 76 2.0 WSW 13 17 7 9 1027.3 1027.4 0.0
29/09:30am 10.6 8.0 7.7 82 1.4 WSW 11 15 6 8 1027.5 1027.6 0.0
29/09:00am 9.0 7.0 7.3 89 0.8 WSW 7 11 4 6 1027.3 1027.4 0.0
29/08:30am 7.6 5.6 6.9 95 0.3 WSW 7 11 4 6 1027.2 1027.3 0.0
29/08:00am 6.3 4.2 5.9 97 0.2 WSW 6 7 3 4 1027.1 1027.2 0.0
29/07:30am 4.8 3.5 4.2 96 0.3 CALM 0 0 0 0 1026.9 1027.0 0.0
29/07:00am 4.8 3.5 4.2 96 0.3 CALM 0 0 0 0 1026.9 1027.0 0.0
29/06:30am 4.6 2.1 3.9 95 0.3 SW 6 9 3 5 1026.8 1026.9 0.0
29/06:00am 5.4 4.2 4.7 95 0.3 CALM 0 0 0 0 1026.6 1026.7 0.0
29/05:30am 4.9 3.2 3.9 93 0.4 SW 2 7 1 4 1026.7 1026.8 0.0
29/05:00am 6.2 3.5 5.5 95 0.3 SW 9 9 5 5 1026.6 1026.7 0.0
29/04:30am 5.8 2.9 4.8 93 0.4 SW 9 11 5 6 1026.5 1026.6 0.0
29/04:00am 6.4 4.4 4.4 87 0.9 SSW 4 9 2 5 1026.5 1026.6 0.0
29/03:30am 7.3 4.6 5.4 88 0.8 SW 9 15 5 8 1026.8 1026.9 0.0
29/03:00am 7.7 5.0 5.8 88 0.9 SW 9 11 5 6 1027.3 1027.4 0.0
29/02:30am 8.0 5.7 5.8 86 1.0 WSW 7 9 4 5 1027.4 1027.5 0.0
29/02:00am 8.7 6.1 6.2 84 1.1 SW 9 11 5 6 1027.5 1027.6 0.0
29/01:30am 8.9 6.7 6.0 82 1.3 WSW 7 11 4 6 1027.6 1027.7 0.0
29/01:00am 9.8 7.6 6.3 79 1.6 W 7 11 4 6 1028.0 1028.1 0.0
29/12:30am 10.0 7.9 6.5 79 1.6 WSW 7 13 4 7 1028.1 1028.2 0.0
29/12:00am 10.2 7.4 6.9 80 1.5 WSW 11 13 6 7 1028.3 1028.4 0.0
 
Date/Time
EST
Temp
°C
App
Temp
°C
Dew
Point
°C
Rel
Hum
%
Delta-T
°C
Wind Press
QNH
hPa
Press
MSL
hPa
Rain since
9am
mm
Dir  Spd
km/h
Gust
km/h
Spd
kts
Gust
kts
28/11:30pm 10.6 8.6 7.1 79 1.7 SSW 7 9 4 5 1028.8 1028.9 0.0
28/11:00pm 10.6 8.3 7.3 80 1.6 WSW 9 11 5 6 1028.9 1029.0 0.0
28/10:30pm 10.4 8.6 7.3 81 1.5 WNW 6 9 3 5 1029.0 1029.1 0.0
28/10:00pm 10.6 8.8 7.3 80 1.6 NNE 6 7 3 4 1029.1 1029.2 0.0
28/09:30pm 10.7 8.7 7.0 78 1.8 WSW 7 9 4 5 1029.3 1029.4 0.0
28/09:00pm 10.8 8.9 7.5 80 1.6 SW 7 9 4 5 1029.6 1029.6 0.0
28/08:30pm 11.7 8.7 7.6 76 2.0 SSW 13 20 7 11 1029.7 1029.7 0.0
28/08:00pm 11.9 9.1 6.8 71 2.4 SSE 11 15 6 8 1029.9 1029.9 0.0
28/07:30pm 12.2 9.3 6.7 69 2.6 S 11 17 6 9 1029.8 1029.8 0.0
28/07:00pm 12.1 9.0 7.2 72 2.3 S 13 17 7 9 1029.8 1029.8 0.0
28/06:30pm 11.5 9.5 7.2 75 2.1 S 7 9 4 5 1029.8 1029.8 0.0
28/06:00pm 11.8 9.0 6.9 72 2.3 SE 11 17 6 9 1029.6 1029.6 0.0
28/05:30pm 12.5 10.1 7.0 69 2.7 SE 9 11 5 6 1029.6 1029.6 0.0
28/05:00pm 13.3 11.9 7.1 66 3.0 S 4 7 2 4 1029.2 1029.3 0.0

Other formats

Comma delimited format used in spreadsheet applications
http://www.bom.gov.au/fwo/IDN60801/IDN60801.95761.axf

JavaScript Object Notation format (JSON) in row-major order
http://www.bom.gov.au/fwo/IDN60801/IDN60801.95761.json

Data quality

Most of these data are generated automatically and are frequently updated. Quality checks on data are not normally performed. It is possible for incorrect values to appear. Refer to information at About Latest Weather Observations and please check the disclaimer before using these data.